Time;durP1;ratioP1;P1;durP2;ratioP2;P2;SDS_P1;SDS_P2;PMS_P1;PMS_P2;Temp;Humidity;BMP_temperature;BMP_pressure;BME280_temperature;BME280_humidity;BME280_pressure;Samples;Min_cycle;Max_cycle;Signal;HPM_P1;HPM_P2
2021/12/01 00:01:42;;;;;;;;;4.00;4.00;;;;;;;;5095502;27;45543;-69
2021/12/01 00:04:07;;;;;;;;;6.00;4.67;;;;;;;;5099304;27;45367;-69
2021/12/01 00:06:33;;;;;;;;;5.00;4.00;;;;;;;;5096234;27;48071;-69
2021/12/01 00:08:59;;;;;;;;;3.00;3.00;;;;;;;;5098968;27;47403;-70
2021/12/01 00:11:24;;;;;;;;;3.00;2.00;;;;;;;;5110052;27;45228;-69
2021/12/01 00:13:49;;;;;;;;;5.00;3.67;;;;;;;;5100299;27;45869;-70
2021/12/01 00:16:15;;;;;;;;;3.00;3.00;;;;;;;;5113367;27;45577;-70
2021/12/01 00:18:40;;;;;;;;;0.67;0.67;;;;;;;;5096354;27;45978;-69
2021/12/01 00:21:05;;;;;;;;;4.00;3.67;;;;;;;;5102565;27;45231;-70
2021/12/01 00:23:30;;;;;;;;;5.67;2.00;;;;;;;;5101095;27;45213;-69
2021/12/01 00:25:56;;;;;;;;;4.00;4.00;;;;;;;;5104314;27;45210;-69
2021/12/01 00:28:22;;;;;;;;;5.00;4.00;;;;;;;;5100470;27;46499;-69
2021/12/01 00:30:47;;;;;;;;;5.00;4.00;;;;;;;;5104187;27;45585;-70
2021/12/01 00:33:13;;;;;;;;;5.00;5.00;;;;;;;;5095272;27;45468;-69
2021/12/01 00:35:38;;;;;;;;;5.00;3.67;;;;;;;;5105809;27;45330;-69
2021/12/01 00:38:04;;;;;;;;;6.33;6.33;;;;;;;;5096433;27;47243;-69
2021/12/01 00:40:30;;;;;;;;;8.00;7.00;;;;;;;;5096354;27;45410;-69
2021/12/01 00:42:55;;;;;;;;;9.00;6.67;;;;;;;;5100179;27;45408;-69
2021/12/01 00:45:22;;;;;;;;;7.33;6.67;;;;;;;;5107360;27;45415;-69
2021/12/01 00:47:52;;;;;;;;;7.33;4.33;;;;;;;;5100085;27;47610;-71
2021/12/01 00:50:25;;;;;;;;;7.00;7.00;;;;;;;;5106455;27;45474;-69
2021/12/01 00:52:52;;;;;;;;;6.67;6.33;;;;;;;;5098535;27;45324;-69
2021/12/01 00:55:17;;;;;;;;;6.67;5.67;;;;;;;;5110497;27;45498;-69
2021/12/01 00:57:42;;;;;;;;;5.33;5.33;;;;;;;;5105203;27;48102;-69
2021/12/01 01:00:08;;;;;;;;;7.00;6.67;;;;;;;;5097162;27;45260;-69
2021/12/01 01:02:34;;;;;;;;;7.00;5.33;;;;;;;;5098850;27;45489;-69
2021/12/01 01:04:59;;;;;;;;;6.33;4.00;;;;;;;;5104859;27;45473;-69
2021/12/01 01:07:25;;;;;;;;;4.67;4.67;;;;;;;;5098445;27;46371;-69
2021/12/01 01:09:50;;;;;;;;;9.00;4.67;;;;;;;;5109499;27;45298;-69
2021/12/01 01:17:46;;;;;;;;;5.67;4.00;;;;;;;;5100655;27;45495;-69
2021/12/01 01:20:13;;;;;;;;;6.00;5.67;;;;;;;;5104532;27;45367;-69
2021/12/01 01:22:39;;;;;;;;;4.67;4.33;;;;;;;;5090623;27;45380;-69
2021/12/01 01:25:05;;;;;;;;;3.67;3.33;;;;;;;;5100370;27;45305;-69
2021/12/01 01:27:31;;;;;;;;;3.00;3.00;;;;;;;;5094332;27;45419;-69
2021/12/01 01:29:56;;;;;;;;;3.33;3.00;;;;;;;;5104573;27;45370;-69
2021/12/01 01:32:22;;;;;;;;;3.33;3.33;;;;;;;;5094625;27;45541;-69
2021/12/01 01:34:47;;;;;;;;;2.00;2.00;;;;;;;;5100630;27;45493;-68
2021/12/01 01:37:12;;;;;;;;;3.33;3.33;;;;;;;;5092420;27;45539;-71
2021/12/01 01:39:38;;;;;;;;;2.00;2.00;;;;;;;;5099546;27;45558;-69
2021/12/01 01:42:03;;;;;;;;;1.67;1.67;;;;;;;;5093873;27;45592;-69
2021/12/01 01:44:30;;;;;;;;;3.00;3.00;;;;;;;;5091693;27;45361;-69
2021/12/01 01:46:56;;;;;;;;;1.00;1.00;;;;;;;;5105871;27;47269;-70
2021/12/01 01:49:34;;;;;;;;;3.00;3.00;;;;;;;;5096459;27;45293;-69
2021/12/01 01:51:59;;;;;;;;;1.33;1.33;;;;;;;;5106337;27;45426;-69
2021/12/01 01:54:24;;;;;;;;;2.00;2.00;;;;;;;;5099658;27;45246;-69
2021/12/01 01:56:49;;;;;;;;;4.00;3.00;;;;;;;;5107652;27;45440;-69
2021/12/01 01:59:14;;;;;;;;;5.33;3.67;;;;;;;;5099868;27;45418;-69
2021/12/01 02:02:02;;;;;;;;;3.33;3.33;;;;;;;;5109662;27;45376;-69
2021/12/01 02:04:27;;;;;;;;;4.00;3.67;;;;;;;;5100943;27;45238;-69
2021/12/01 02:06:52;;;;;;;;;3.67;3.00;;;;;;;;5097484;27;45516;-69
2021/12/01 02:09:22;;;;;;;;;2.67;2.67;;;;;;;;5104507;27;45310;-69
2021/12/01 02:11:47;;;;;;;;;5.00;3.67;;;;;;;;5108025;27;45368;-69
2021/12/01 02:14:13;;;;;;;;;2.67;2.67;;;;;;;;5106822;27;45403;-69
2021/12/01 02:16:38;;;;;;;;;7.00;4.00;;;;;;;;5109780;27;45324;-69
2021/12/01 02:19:04;;;;;;;;;2.33;1.67;;;;;;;;5099219;27;45195;-69
2021/12/01 02:21:30;;;;;;;;;5.00;5.00;;;;;;;;5098367;27;45347;-69
2021/12/01 02:23:58;;;;;;;;;1.67;1.67;;;;;;;;5099190;27;45519;-70
2021/12/01 02:26:24;;;;;;;;;2.00;2.00;;;;;;;;5096069;27;48403;-68
2021/12/01 02:28:51;;;;;;;;;1.00;1.00;;;;;;;;5105036;27;45441;-68
2021/12/01 02:31:17;;;;;;;;;4.33;2.33;;;;;;;;5100250;27;45736;-69
2021/12/01 02:33:42;;;;;;;;;1.00;1.00;;;;;;;;5094018;27;45428;-69
2021/12/01 02:36:12;;;;;;;;;3.00;3.00;;;;;;;;5100844;27;46754;-69
2021/12/01 02:38:37;;;;;;;;;4.00;4.00;;;;;;;;5090658;27;45408;-68
2021/12/01 02:41:03;;;;;;;;;4.33;2.00;;;;;;;;5093746;27;45312;-68
2021/12/01 02:43:29;;;;;;;;;3.33;3.00;;;;;;;;5092208;27;45449;-68
2021/12/01 02:45:55;;;;;;;;;4.00;4.00;;;;;;;;5093966;27;47496;-68
2021/12/01 02:48:21;;;;;;;;;3.00;3.00;;;;;;;;5090035;27;45371;-69
2021/12/01 02:50:47;;;;;;;;;2.00;2.00;;;;;;;;5096636;27;45278;-69
2021/12/01 02:53:13;;;;;;;;;3.00;3.00;;;;;;;;5094196;27;45700;-69
2021/12/01 02:55:50;;;;;;;;;2.00;2.00;;;;;;;;5112473;27;46347;-68
2021/12/01 02:58:17;;;;;;;;;3.00;3.00;;;;;;;;5093739;27;45366;-68
2021/12/01 03:00:42;;;;;;;;;2.00;2.00;;;;;;;;5098429;27;45401;-68
2021/12/01 03:03:08;;;;;;;;;5.67;4.00;;;;;;;;5093844;27;45323;-68
2021/12/01 03:05:33;;;;;;;;;3.67;2.00;;;;;;;;5102432;27;48273;-68
2021/12/01 03:07:58;;;;;;;;;5.00;3.00;;;;;;;;5094306;27;45434;-69
2021/12/01 03:10:23;;;;;;;;;3.00;3.00;;;;;;;;5098732;27;45549;-70
2021/12/01 03:12:48;;;;;;;;;3.00;3.00;;;;;;;;5086847;27;45646;-68
2021/12/01 03:15:17;;;;;;;;;5.00;5.00;;;;;;;;5099671;27;46307;-68
2021/12/01 03:17:42;;;;;;;;;3.33;3.33;;;;;;;;5092611;27;45828;-69
2021/12/01 03:20:09;;;;;;;;;1.00;1.00;;;;;;;;5101831;27;45367;-68
2021/12/01 03:22:34;;;;;;;;;3.67;3.33;;;;;;;;5093333;27;45721;-70
2021/12/01 03:24:59;;;;;;;;;1.67;1.67;;;;;;;;5100690;27;45167;-69
2021/12/01 03:27:24;;;;;;;;;7.00;2.00;;;;;;;;5091891;27;45341;-68
2021/12/01 03:29:50;;;;;;;;;2.00;2.00;;;;;;;;5106438;27;45504;-69
2021/12/01 03:32:15;;;;;;;;;2.00;2.00;;;;;;;;5092257;27;45331;-69
2021/12/01 03:34:41;;;;;;;;;2.67;2.67;;;;;;;;5087585;27;45255;-69
2021/12/01 03:37:06;;;;;;;;;5.00;3.33;;;;;;;;5087787;27;45171;-68
2021/12/01 03:39:32;;;;;;;;;2.33;2.00;;;;;;;;5086515;27;45558;-69
2021/12/01 03:41:57;;;;;;;;;3.00;2.00;;;;;;;;5094124;27;45429;-68
2021/12/01 03:44:22;;;;;;;;;4.00;2.00;;;;;;;;5091248;27;45334;-69
2021/12/01 03:46:47;;;;;;;;;4.67;2.00;;;;;;;;5097629;27;45579;-68
2021/12/01 03:49:13;;;;;;;;;4.00;3.00;;;;;;;;5088270;27;45299;-68
2021/12/01 03:51:38;;;;;;;;;1.00;1.00;;;;;;;;5097446;27;45408;-68
2021/12/01 03:54:03;;;;;;;;;2.33;2.33;;;;;;;;5097054;27;47150;-68
2021/12/01 03:56:30;;;;;;;;;1.33;1.33;;;;;;;;5099636;27;45460;-68
2021/12/01 03:58:56;;;;;;;;;1.00;1.00;;;;;;;;5097738;27;45343;-68
2021/12/01 04:01:21;;;;;;;;;1.67;1.67;;;;;;;;5105480;27;45406;-70
2021/12/01 04:03:46;;;;;;;;;2.00;1.00;;;;;;;;5098628;27;45445;-68
2021/12/01 04:06:11;;;;;;;;;1.00;1.00;;;;;;;;5097190;27;45542;-69
2021/12/01 04:08:37;;;;;;;;;5.00;3.00;;;;;;;;5098335;27;45292;-69
2021/12/01 04:11:02;;;;;;;;;5.67;2.00;;;;;;;;5120279;27;45315;-69
2021/12/01 04:13:28;;;;;;;;;3.00;2.00;;;;;;;;5101549;27;46282;-70
2021/12/01 04:15:53;;;;;;;;;2.00;2.00;;;;;;;;5102863;27;45489;-69
2021/12/01 04:18:18;;;;;;;;;1.67;1.67;;;;;;;;5100991;27;45384;-69
2021/12/01 04:20:43;;;;;;;;;2.00;2.00;;;;;;;;5096738;27;45309;-69
2021/12/01 04:23:09;;;;;;;;;3.33;0.33;;;;;;;;5091510;27;45526;-69
2021/12/01 04:25:34;;;;;;;;;3.00;3.00;;;;;;;;5105833;27;45357;-68
2021/12/01 04:28:00;;;;;;;;;4.00;3.00;;;;;;;;5100670;27;45304;-68
2021/12/01 04:30:26;;;;;;;;;1.00;1.00;;;;;;;;5106703;27;45534;-69
2021/12/01 04:32:51;;;;;;;;;2.00;1.67;;;;;;;;5088633;27;45553;-69
2021/12/01 04:35:18;;;;;;;;;2.00;1.00;;;;;;;;5091155;27;45340;-68
2021/12/01 04:37:44;;;;;;;;;1.00;1.00;;;;;;;;5089680;27;45277;-69
2021/12/01 04:40:10;;;;;;;;;2.67;2.00;;;;;;;;5102187;27;45587;-69
2021/12/01 04:42:35;;;;;;;;;2.33;2.33;;;;;;;;5100967;27;46016;-69
2021/12/01 04:45:00;;;;;;;;;2.00;2.00;;;;;;;;5102902;27;45372;-68
2021/12/01 04:47:29;;;;;;;;;2.00;2.00;;;;;;;;5108364;27;45424;-69
2021/12/01 04:49:55;;;;;;;;;1.00;1.00;;;;;;;;5105082;27;45541;-69
2021/12/01 04:52:21;;;;;;;;;6.00;3.67;;;;;;;;5104836;27;45277;-69
2021/12/01 04:54:46;;;;;;;;;2.00;2.00;;;;;;;;5104442;27;45736;-69
2021/12/01 04:57:11;;;;;;;;;4.00;3.33;;;;;;;;5098836;27;45308;-69
2021/12/01 04:59:37;;;;;;;;;3.00;3.00;;;;;;;;5106106;27;45391;-69
2021/12/01 05:02:03;;;;;;;;;3.00;3.00;;;;;;;;5107483;27;45452;-69
2021/12/01 05:04:28;;;;;;;;;1.00;1.00;;;;;;;;5104127;27;45501;-71
2021/12/01 05:06:53;;;;;;;;;3.00;3.00;;;;;;;;5098587;27;45313;-69
2021/12/01 05:09:19;;;;;;;;;2.00;2.00;;;;;;;;5108265;27;45266;-69
2021/12/01 05:11:44;;;;;;;;;1.67;1.67;;;;;;;;5113819;27;46880;-69
2021/12/01 05:14:13;;;;;;;;;1.67;1.67;;;;;;;;5092285;27;45369;-68
2021/12/01 05:16:39;;;;;;;;;2.67;2.67;;;;;;;;5100251;27;45483;-69
2021/12/01 05:19:07;;;;;;;;;1.33;0.67;;;;;;;;5104193;27;45296;-69
2021/12/01 05:21:33;;;;;;;;;3.33;2.00;;;;;;;;5100618;27;45483;-69
2021/12/01 05:23:58;;;;;;;;;13.67;12.33;;;;;;;;5093815;27;45253;-69
2021/12/01 05:26:24;;;;;;;;;1.67;1.67;;;;;;;;5101763;27;45386;-69
2021/12/01 05:28:49;;;;;;;;;2.67;1.00;;;;;;;;5103622;27;45376;-71
2021/12/01 05:31:14;;;;;;;;;1.00;1.00;;;;;;;;5101847;27;45595;-71
2021/12/01 05:33:40;;;;;;;;;1.00;1.00;;;;;;;;5092264;27;45374;-68
2021/12/01 05:36:06;;;;;;;;;2.33;1.00;;;;;;;;5107743;27;45332;-69
2021/12/01 05:38:31;;;;;;;;;0.00;0.00;;;;;;;;5086816;27;45379;-70
2021/12/01 05:40:56;;;;;;;;;0.00;0.00;;;;;;;;5096911;27;45545;-70
2021/12/01 05:43:22;;;;;;;;;0.00;0.00;;;;;;;;5093236;27;45424;-70
2021/12/01 05:45:47;;;;;;;;;0.00;0.00;;;;;;;;5110877;27;45335;-70
2021/12/01 05:48:13;;;;;;;;;1.00;1.00;;;;;;;;5095830;27;45367;-70
2021/12/01 05:50:38;;;;;;;;;0.00;0.00;;;;;;;;5112773;27;45609;-70
2021/12/01 05:53:03;;;;;;;;;1.00;1.00;;;;;;;;5095227;27;45362;-70
2021/12/01 05:55:29;;;;;;;;;1.00;1.00;;;;;;;;5097508;27;45553;-70
2021/12/01 05:57:54;;;;;;;;;0.00;0.00;;;;;;;;5096756;27;45419;-70
2021/12/01 06:00:19;;;;;;;;;2.00;1.00;;;;;;;;5097616;27;45308;-70
2021/12/01 06:02:49;;;;;;;;;0.00;0.00;;;;;;;;5097613;27;45773;-70
2021/12/01 06:05:14;;;;;;;;;0.00;0.00;;;;;;;;5096726;27;45347;-69
2021/12/01 06:07:39;;;;;;;;;0.00;0.00;;;;;;;;5096633;27;45540;-70
2021/12/01 06:10:04;;;;;;;;;0.00;0.00;;;;;;;;5112616;27;46132;-71
2021/12/01 06:12:32;;;;;;;;;0.00;0.00;;;;;;;;5096008;27;45365;-71
2021/12/01 06:14:58;;;;;;;;;0.00;0.00;;;;;;;;5100419;27;45441;-71
2021/12/01 06:17:23;;;;;;;;;0.00;0.00;;;;;;;;5094132;27;45636;-71
2021/12/01 06:19:48;;;;;;;;;0.00;0.00;;;;;;;;5103829;27;45558;-70
2021/12/01 06:22:14;;;;;;;;;2.67;1.00;;;;;;;;5095643;27;45525;-71
2021/12/01 06:24:39;;;;;;;;;0.00;0.00;;;;;;;;5097059;27;45288;-71
2021/12/01 06:27:05;;;;;;;;;1.00;1.00;;;;;;;;5098226;27;45305;-71
2021/12/01 06:29:30;;;;;;;;;0.00;0.00;;;;;;;;5105143;27;45402;-71
2021/12/01 06:31:55;;;;;;;;;0.33;0.33;;;;;;;;5098406;27;45377;-70
2021/12/01 06:34:20;;;;;;;;;1.00;1.00;;;;;;;;5091344;27;45451;-70
2021/12/01 06:36:46;;;;;;;;;1.00;1.00;;;;;;;;5106079;27;45418;-71
2021/12/01 06:39:11;;;;;;;;;0.00;0.00;;;;;;;;5091735;27;47081;-69
2021/12/01 06:41:36;;;;;;;;;2.00;0.00;;;;;;;;5095493;27;45678;-70
2021/12/01 06:44:02;;;;;;;;;0.33;0.33;;;;;;;;5092623;27;45299;-70
2021/12/01 06:46:28;;;;;;;;;1.00;1.00;;;;;;;;5112070;27;45308;-70
2021/12/01 06:48:54;;;;;;;;;0.00;0.00;;;;;;;;5091977;27;45422;-70
2021/12/01 06:51:19;;;;;;;;;0.00;0.00;;;;;;;;5114488;27;45573;-70
2021/12/01 06:53:44;;;;;;;;;1.00;1.00;;;;;;;;5092233;27;45353;-70
2021/12/01 06:56:10;;;;;;;;;1.00;1.00;;;;;;;;5116871;27;45375;-70
2021/12/01 06:58:35;;;;;;;;;0.00;0.00;;;;;;;;5091739;27;46173;-70
2021/12/01 07:01:02;;;;;;;;;2.00;0.33;;;;;;;;5099863;27;45360;-70
2021/12/01 07:03:27;;;;;;;;;0.00;0.00;;;;;;;;5096074;27;45378;-70
2021/12/01 07:05:52;;;;;;;;;0.00;0.00;;;;;;;;5105211;27;45510;-70
2021/12/01 07:08:18;;;;;;;;;0.67;0.67;;;;;;;;5093021;27;45441;-70
2021/12/01 07:10:44;;;;;;;;;1.00;1.00;;;;;;;;5099135;27;45369;-70
2021/12/01 07:13:09;;;;;;;;;0.00;0.00;;;;;;;;5085508;27;45329;-70
2021/12/01 07:15:34;;;;;;;;;2.00;0.00;;;;;;;;5106187;27;45543;-70
2021/12/01 07:17:59;;;;;;;;;1.33;0.00;;;;;;;;5093845;27;46662;-69
2021/12/01 07:20:24;;;;;;;;;1.33;0.00;;;;;;;;5101081;27;45465;-70
2021/12/01 07:22:50;;;;;;;;;1.00;1.00;;;;;;;;5089322;27;45487;-70
2021/12/01 07:25:15;;;;;;;;;1.00;1.00;;;;;;;;5100727;27;45511;-70
2021/12/01 07:27:41;;;;;;;;;1.00;1.00;;;;;;;;5097690;27;46225;-70
2021/12/01 07:30:06;;;;;;;;;2.00;2.00;;;;;;;;5112154;27;45318;-72
2021/12/01 07:32:32;;;;;;;;;2.00;2.00;;;;;;;;5100857;27;45437;-69
2021/12/01 07:34:57;;;;;;;;;2.00;1.00;;;;;;;;5095704;27;45218;-71
2021/12/01 07:37:22;;;;;;;;;2.00;2.00;;;;;;;;5099695;27;45471;-70
2021/12/01 07:39:48;;;;;;;;;0.67;0.00;;;;;;;;5097050;27;45329;-70
2021/12/01 07:42:13;;;;;;;;;1.00;1.00;;;;;;;;5098395;27;45414;-69
2021/12/01 07:44:39;;;;;;;;;0.67;0.67;;;;;;;;5103228;27;45495;-69
2021/12/01 07:47:05;;;;;;;;;0.00;0.00;;;;;;;;5099053;27;46001;-70
2021/12/01 07:49:30;;;;;;;;;1.00;1.00;;;;;;;;5100171;27;45395;-70
2021/12/01 07:51:55;;;;;;;;;1.67;1.67;;;;;;;;5109386;27;45434;-71
2021/12/01 07:54:21;;;;;;;;;1.00;1.00;;;;;;;;5106160;27;45448;-70
2021/12/01 07:56:46;;;;;;;;;2.00;1.00;;;;;;;;5096720;27;47152;-70
2021/12/01 07:59:15;;;;;;;;;1.00;1.00;;;;;;;;5100388;27;45235;-70
2021/12/01 08:01:40;;;;;;;;;2.00;2.00;;;;;;;;5099363;27;45319;-70
2021/12/01 08:04:05;;;;;;;;;0.00;0.00;;;;;;;;5102014;27;45322;-70
2021/12/01 08:06:32;;;;;;;;;1.00;1.00;;;;;;;;5100501;27;45734;-70
2021/12/01 08:09:00;;;;;;;;;0.00;0.00;;;;;;;;5103440;27;45229;-70
2021/12/01 08:11:26;;;;;;;;;1.00;1.00;;;;;;;;5101584;27;45482;-71
2021/12/01 08:13:51;;;;;;;;;0.00;0.00;;;;;;;;5089995;27;45507;-71
2021/12/01 08:16:16;;;;;;;;;2.00;0.67;;;;;;;;5102711;27;46585;-71
2021/12/01 08:18:41;;;;;;;;;0.00;0.00;;;;;;;;5098862;27;45324;-71
2021/12/01 08:21:06;;;;;;;;;0.00;0.00;;;;;;;;5103517;27;45670;-71
2021/12/01 08:23:32;;;;;;;;;0.00;0.00;;;;;;;;5093418;27;45509;-71
2021/12/01 08:25:57;;;;;;;;;0.00;0.00;;;;;;;;5100800;27;47506;-71
2021/12/01 08:28:22;;;;;;;;;0.00;0.00;;;;;;;;5102891;27;45370;-71
2021/12/01 08:30:47;;;;;;;;;0.00;0.00;;;;;;;;5103881;27;45299;-71
2021/12/01 08:33:12;;;;;;;;;0.00;0.00;;;;;;;;5087823;27;45507;-70
2021/12/01 08:35:39;;;;;;;;;1.00;1.00;;;;;;;;5084978;27;46035;-70
2021/12/01 08:38:04;;;;;;;;;0.67;0.67;;;;;;;;5088617;27;45230;-71
2021/12/01 08:40:29;;;;;;;;;2.00;1.00;;;;;;;;5094892;27;45845;-70
2021/12/01 08:42:55;;;;;;;;;0.00;0.00;;;;;;;;5094218;27;45425;-71
2021/12/01 08:45:20;;;;;;;;;0.33;0.33;;;;;;;;5090828;27;45621;-69
2021/12/01 08:47:45;;;;;;;;;1.33;0.00;;;;;;;;5091531;27;45492;-69
2021/12/01 08:50:11;;;;;;;;;3.00;1.33;;;;;;;;5094769;27;45567;-70
2021/12/01 08:52:37;;;;;;;;;0.00;0.00;;;;;;;;5098196;27;45410;-71
2021/12/01 08:55:02;;;;;;;;;0.00;0.00;;;;;;;;5099329;27;47131;-70
2021/12/01 08:57:28;;;;;;;;;1.00;1.00;;;;;;;;5085731;27;45799;-70
2021/12/01 08:59:53;;;;;;;;;1.00;1.00;;;;;;;;5085773;27;45491;-70
2021/12/01 09:02:18;;;;;;;;;1.33;0.00;;;;;;;;5099514;27;45353;-70
2021/12/01 09:04:44;;;;;;;;;0.00;0.00;;;;;;;;5103477;27;46078;-71
2021/12/01 09:07:10;;;;;;;;;1.00;0.00;;;;;;;;5102292;27;45367;-71
2021/12/01 09:09:35;;;;;;;;;0.67;0.00;;;;;;;;5110057;27;45238;-69
2021/12/01 09:12:00;;;;;;;;;0.00;0.00;;;;;;;;5106785;27;45403;-69
2021/12/01 09:14:26;;;;;;;;;0.00;0.00;;;;;;;;5094284;27;46231;-69
2021/12/01 09:16:52;;;;;;;;;1.00;1.00;;;;;;;;5099945;27;45453;-69
2021/12/01 09:19:18;;;;;;;;;0.00;0.00;;;;;;;;5102206;27;45386;-69
2021/12/01 09:21:43;;;;;;;;;1.33;1.00;;;;;;;;5102148;27;45363;-69
2021/12/01 09:24:09;;;;;;;;;0.00;0.00;;;;;;;;5094596;27;46424;-70
2021/12/01 09:26:34;;;;;;;;;0.33;0.33;;;;;;;;5099747;27;45582;-69
2021/12/01 09:29:00;;;;;;;;;0.67;0.67;;;;;;;;5092731;27;45379;-70
2021/12/01 09:31:26;;;;;;;;;1.00;1.00;;;;;;;;5096747;27;45613;-70
2021/12/01 09:33:51;;;;;;;;;1.00;0.00;;;;;;;;5085317;27;45581;-70
2021/12/01 09:36:17;;;;;;;;;0.00;0.00;;;;;;;;5108531;27;45544;-69
2021/12/01 09:38:43;;;;;;;;;0.33;0.33;;;;;;;;5093409;27;45273;-70
2021/12/01 09:41:08;;;;;;;;;1.00;1.00;;;;;;;;5113344;27;45253;-69
2021/12/01 09:43:34;;;;;;;;;3.00;2.00;;;;;;;;5093611;27;46300;-70
2021/12/01 09:46:01;;;;;;;;;0.00;0.00;;;;;;;;5109828;27;45712;-70
2021/12/01 09:48:27;;;;;;;;;4.67;2.00;;;;;;;;5092856;27;45371;-70
2021/12/01 09:50:52;;;;;;;;;0.00;0.00;;;;;;;;5113137;27;45368;-70
2021/12/01 09:53:17;;;;;;;;;1.67;0.67;;;;;;;;5095254;27;46976;-70
2021/12/01 09:55:43;;;;;;;;;1.00;1.00;;;;;;;;5100096;27;45299;-71
2021/12/01 09:58:14;;;;;;;;;0.33;0.33;;;;;;;;5095538;27;45555;-71
2021/12/01 10:00:42;;;;;;;;;1.33;1.33;;;;;;;;5101324;27;45336;-71
2021/12/01 10:03:08;;;;;;;;;3.00;1.00;;;;;;;;5095178;27;45303;-71
2021/12/01 10:05:45;;;;;;;;;0.67;0.00;;;;;;;;5100246;27;45321;-72
2021/12/01 10:08:16;;;;;;;;;0.67;0.67;;;;;;;;5089470;27;45230;-71
2021/12/01 10:10:41;;;;;;;;;0.33;0.33;;;;;;;;5103058;27;45399;-71
2021/12/01 10:13:06;;;;;;;;;1.00;1.00;;;;;;;;5087018;27;45339;-71
2021/12/01 10:15:32;;;;;;;;;1.00;1.00;;;;;;;;5102139;27;45324;-72
2021/12/01 10:18:09;;;;;;;;;2.00;1.00;;;;;;;;5095267;27;45466;-70
2021/12/01 10:20:34;;;;;;;;;0.33;0.00;;;;;;;;5104479;27;45412;-70
2021/12/01 10:23:07;;;;;;;;;1.00;0.00;;;;;;;;5095327;27;46635;-70
2021/12/01 10:25:32;;;;;;;;;1.00;1.00;;;;;;;;5091155;27;45475;-70
2021/12/01 10:27:58;;;;;;;;;1.00;1.00;;;;;;;;5095561;27;45314;-70
2021/12/01 10:30:35;;;;;;;;;0.00;0.00;;;;;;;;5099310;27;45257;-71
2021/12/01 10:33:15;;;;;;;;;1.67;0.00;;;;;;;;5088500;27;45503;-71
2021/12/01 10:35:40;;;;;;;;;1.00;1.00;;;;;;;;5097362;27;45468;-70
2021/12/01 10:38:07;;;;;;;;;1.00;1.00;;;;;;;;5092700;27;45412;-69
2021/12/01 10:40:32;;;;;;;;;4.00;1.00;;;;;;;;5106276;27;45367;-70
2021/12/01 10:42:59;;;;;;;;;2.00;2.00;;;;;;;;5094468;27;46396;-70
2021/12/01 10:45:26;;;;;;;;;3.67;1.00;;;;;;;;5094877;27;45305;-70
2021/12/01 10:47:51;;;;;;;;;2.67;1.33;;;;;;;;5096528;27;45407;-70
2021/12/01 10:50:18;;;;;;;;;1.33;0.00;;;;;;;;5107140;27;45478;-70
2021/12/01 10:52:49;;;;;;;;;0.00;0.00;;;;;;;;5099834;27;45414;-69
2021/12/01 10:55:19;;;;;;;;;2.33;2.33;;;;;;;;5095218;27;45304;-70
2021/12/01 10:57:47;;;;;;;;;2.33;1.00;;;;;;;;5097213;27;45544;-71
2021/12/01 11:00:22;;;;;;;;;5.00;5.00;;;;;;;;5111467;27;45565;-71
2021/12/01 11:02:48;;;;;;;;;2.67;2.67;;;;;;;;5098984;27;46496;-71
2021/12/01 11:05:33;;;;;;;;;3.00;3.00;;;;;;;;5102011;27;45482;-70
2021/12/01 11:08:12;;;;;;;;;3.67;2.00;;;;;;;;5086951;27;45331;-70
2021/12/01 11:10:37;;;;;;;;;10.33;4.00;;;;;;;;5101915;27;45384;-71
2021/12/01 11:13:03;;;;;;;;;3.67;3.67;;;;;;;;5087063;27;45519;-70
2021/12/01 11:15:30;;;;;;;;;7.33;7.00;;;;;;;;5101754;27;45272;-70
2021/12/01 11:17:57;;;;;;;;;2.00;2.00;;;;;;;;5095534;27;45400;-71
2021/12/01 11:20:41;;;;;;;;;4.00;4.00;;;;;;;;5101861;27;45608;-70
2021/12/01 11:23:15;;;;;;;;;6.67;6.67;;;;;;;;5090399;27;45556;-70
2021/12/01 11:25:42;;;;;;;;;5.00;5.00;;;;;;;;5101460;27;45381;-70
2021/12/01 11:28:09;;;;;;;;;3.00;3.00;;;;;;;;5093050;27;45368;-71
2021/12/01 11:30:35;;;;;;;;;1.33;1.00;;;;;;;;5102226;27;45218;-71
2021/12/01 11:33:00;;;;;;;;;7.67;5.00;;;;;;;;5092460;27;47947;-71
2021/12/01 11:35:26;;;;;;;;;3.33;3.00;;;;;;;;5092258;27;45227;-70
2021/12/01 11:37:55;;;;;;;;;0.00;0.00;;;;;;;;5094865;27;45549;-70
2021/12/01 11:40:30;;;;;;;;;8.00;4.00;;;;;;;;5090823;27;45420;-71
2021/12/01 11:42:56;;;;;;;;;3.67;1.33;;;;;;;;5092278;27;47556;-71
2021/12/01 11:45:22;;;;;;;;;3.00;2.67;;;;;;;;5102775;27;46437;-71
2021/12/01 11:47:48;;;;;;;;;2.67;1.33;;;;;;;;5099429;27;45348;-71
2021/12/01 11:50:17;;;;;;;;;5.67;4.33;;;;;;;;5105481;27;45412;-71
2021/12/01 11:52:52;;;;;;;;;1.33;1.00;;;;;;;;5098805;27;47088;-71
2021/12/01 11:55:37;;;;;;;;;3.33;2.67;;;;;;;;5107849;27;45424;-71
2021/12/01 11:58:02;;;;;;;;;2.67;2.67;;;;;;;;5094528;27;45257;-71
2021/12/01 12:00:43;;;;;;;;;2.33;2.00;;;;;;;;5098202;27;45588;-71
2021/12/01 12:03:25;;;;;;;;;4.00;2.00;;;;;;;;5093811;27;45469;-71
2021/12/01 12:06:29;;;;;;;;;2.33;2.00;;;;;;;;5100400;27;45393;-71
2021/12/01 12:08:54;;;;;;;;;3.00;3.00;;;;;;;;5076181;28;45527;-70
2021/12/01 12:11:38;;;;;;;;;3.67;3.00;;;;;;;;5077791;28;45511;-70
2021/12/01 12:14:03;;;;;;;;;5.33;3.00;;;;;;;;5080584;27;48397;-70
2021/12/01 12:16:29;;;;;;;;;4.00;2.67;;;;;;;;5102015;27;45626;-69
2021/12/01 12:18:54;;;;;;;;;6.00;4.33;;;;;;;;5112161;27;45332;-68
2021/12/01 12:24:05;;;;;;;;;2.33;1.67;;;;;;;;5085990;27;45951;-69
2021/12/01 12:26:32;;;;;;;;;0.67;0.67;;;;;;;;5098218;27;45434;-71
2021/12/01 12:29:08;;;;;;;;;6.00;3.00;;;;;;;;5093397;27;45420;-71
2021/12/01 12:31:33;;;;;;;;;4.00;4.00;;;;;;;;5109897;27;45456;-71
2021/12/01 12:34:01;;;;;;;;;4.00;4.00;;;;;;;;5092840;27;48243;-71
2021/12/01 12:36:37;;;;;;;;;5.00;4.33;;;;;;;;5084739;27;45305;-69
2021/12/01 12:39:09;;;;;;;;;2.67;2.67;;;;;;;;5093048;27;45435;-71
2021/12/01 12:41:53;;;;;;;;;5.00;5.00;;;;;;;;5100428;27;45195;-71
2021/12/01 12:44:30;;;;;;;;;2.33;2.33;;;;;;;;5092368;27;45341;-71
2021/12/01 12:47:03;;;;;;;;;6.00;5.00;;;;;;;;5109316;27;45265;-72
2021/12/01 12:49:38;;;;;;;;;3.00;3.00;;;;;;;;5101499;27;45429;-69
2021/12/01 12:52:22;;;;;;;;;2.67;1.00;;;;;;;;5107361;27;45327;-69
2021/12/01 12:54:47;;;;;;;;;4.00;1.33;;;;;;;;5106157;27;45494;-71
2021/12/01 12:57:14;;;;;;;;;2.00;1.67;;;;;;;;5107653;27;45332;-69
2021/12/01 12:59:39;;;;;;;;;4.00;4.00;;;;;;;;5107659;27;45393;-70
2021/12/01 13:02:04;;;;;;;;;3.67;3.67;;;;;;;;5108209;27;45197;-69
2021/12/01 13:04:54;;;;;;;;;4.67;3.33;;;;;;;;5105094;27;46291;-70
2021/12/01 13:07:43;;;;;;;;;4.00;4.00;;;;;;;;5093534;27;46085;-70
2021/12/01 13:10:08;;;;;;;;;10.00;5.00;;;;;;;;5098697;27;45405;-69
2021/12/01 13:12:54;;;;;;;;;7.33;7.33;;;;;;;;5095069;27;45534;-70
2021/12/01 13:15:19;;;;;;;;;4.67;4.67;;;;;;;;5103593;27;47910;-69
2021/12/01 13:17:48;;;;;;;;;5.33;5.33;;;;;;;;5098930;27;45675;-70
2021/12/01 13:20:13;;;;;;;;;5.67;4.00;;;;;;;;5103619;27;45336;-69
2021/12/01 13:22:38;;;;;;;;;4.33;3.33;;;;;;;;5095561;27;45338;-70
2021/12/01 13:25:04;;;;;;;;;7.00;4.33;;;;;;;;5100893;27;45689;-70
2021/12/01 13:27:41;;;;;;;;;8.33;6.33;;;;;;;;5094910;27;45548;-70
2021/12/01 13:30:08;;;;;;;;;2.67;2.00;;;;;;;;5098232;27;45453;-69
2021/12/01 13:32:33;;;;;;;;;5.00;5.00;;;;;;;;5098303;27;45431;-70
2021/12/01 13:34:59;;;;;;;;;7.33;5.33;;;;;;;;5101185;27;47477;-69
2021/12/01 13:37:24;;;;;;;;;6.33;4.33;;;;;;;;5096333;27;45360;-69
2021/12/01 13:39:52;;;;;;;;;5.33;4.67;;;;;;;;5097436;27;45340;-69
2021/12/01 13:42:22;;;;;;;;;7.00;5.33;;;;;;;;5101785;27;45561;-69
2021/12/01 13:44:49;;;;;;;;;8.67;4.33;;;;;;;;5100150;27;45427;-70
2021/12/01 13:47:18;;;;;;;;;6.33;6.33;;;;;;;;5105138;27;45447;-70
2021/12/01 13:49:57;;;;;;;;;4.67;1.67;;;;;;;;5101324;27;45314;-70
2021/12/01 13:52:51;;;;;;;;;3.33;3.33;;;;;;;;5105403;27;45457;-70
2021/12/01 13:55:20;;;;;;;;;3.00;3.00;;;;;;;;5094909;27;45631;-72
2021/12/01 13:57:46;;;;;;;;;1.00;1.00;;;;;;;;5097527;27;45406;-70
2021/12/01 14:00:12;;;;;;;;;4.33;4.33;;;;;;;;5103246;27;45416;-70
2021/12/01 14:02:37;;;;;;;;;8.00;4.00;;;;;;;;5098168;27;45368;-70
2021/12/01 14:05:04;;;;;;;;;2.00;2.00;;;;;;;;5103078;27;45417;-71
2021/12/01 14:07:42;;;;;;;;;0.67;0.67;;;;;;;;5094185;27;45426;-70
2021/12/01 14:10:11;;;;;;;;;5.67;2.33;;;;;;;;5091021;27;45379;-70
2021/12/01 14:12:38;;;;;;;;;2.00;2.00;;;;;;;;5091107;27;45258;-70
2021/12/01 14:15:03;;;;;;;;;2.00;0.67;;;;;;;;5086309;27;46242;-70
2021/12/01 14:17:29;;;;;;;;;2.67;2.67;;;;;;;;5094321;27;45365;-71
2021/12/01 14:19:55;;;;;;;;;1.67;0.67;;;;;;;;5102200;27;45265;-70
2021/12/01 14:22:21;;;;;;;;;3.00;3.00;;;;;;;;5097837;27;45576;-70
2021/12/01 14:24:50;;;;;;;;;3.67;3.67;;;;;;;;5097901;27;46015;-70
2021/12/01 14:27:16;;;;;;;;;3.33;3.33;;;;;;;;5094284;27;45467;-70
2021/12/01 14:29:41;;;;;;;;;3.67;3.00;;;;;;;;5102406;27;45265;-70
2021/12/01 14:32:08;;;;;;;;;4.00;4.00;;;;;;;;5096624;27;45474;-70
2021/12/01 14:34:37;;;;;;;;;2.33;2.00;;;;;;;;5096223;27;47435;-70
2021/12/01 14:37:03;;;;;;;;;4.33;3.00;;;;;;;;5087236;27;45265;-70
2021/12/01 14:39:28;;;;;;;;;2.00;2.00;;;;;;;;5100113;27;45426;-70
2021/12/01 14:41:55;;;;;;;;;4.00;4.00;;;;;;;;5096872;27;45547;-71
2021/12/01 14:44:25;;;;;;;;;4.00;3.00;;;;;;;;5095749;27;48032;-71
2021/12/01 14:46:58;;;;;;;;;3.67;2.33;;;;;;;;5109420;27;45420;-71
2021/12/01 14:49:25;;;;;;;;;7.67;5.00;;;;;;;;5098931;27;45454;-71
2021/12/01 14:51:51;;;;;;;;;5.33;3.00;;;;;;;;5098064;27;45539;-70